sensor_id;sensor_type;location;lat;lon;timestamp;temperature;humidity
71672;DHT22;62112;45.638;11.714;2022-11-22T00:00:03;21.80;85.70
71672;DHT22;62112;45.638;11.714;2022-11-22T00:02:29;21.90;85.70
71672;DHT22;62112;45.638;11.714;2022-11-22T00:04:55;21.80;85.80
71672;DHT22;62112;45.638;11.714;2022-11-22T00:07:21;21.80;85.80
71672;DHT22;62112;45.638;11.714;2022-11-22T00:09:46;21.80;85.80
71672;DHT22;62112;45.638;11.714;2022-11-22T00:12:12;21.70;85.70
71672;DHT22;62112;45.638;11.714;2022-11-22T00:14:38;21.80;85.80
71672;DHT22;62112;45.638;11.714;2022-11-22T00:17:04;21.60;85.80
71672;DHT22;62112;45.638;11.714;2022-11-22T00:19:30;21.60;85.90
71672;DHT22;62112;45.638;11.714;2022-11-22T00:21:55;21.60;86.00
71672;DHT22;62112;45.638;11.714;2022-11-22T00:24:21;21.60;85.90
71672;DHT22;62112;45.638;11.714;2022-11-22T00:26:47;21.70;86.00
71672;DHT22;62112;45.638;11.714;2022-11-22T00:29:13;21.60;86.00
71672;DHT22;62112;45.638;11.714;2022-11-22T00:31:39;21.60;85.90
71672;DHT22;62112;45.638;11.714;2022-11-22T00:34:05;21.50;85.90
71672;DHT22;62112;45.638;11.714;2022-11-22T00:36:31;21.50;86.00
71672;DHT22;62112;45.638;11.714;2022-11-22T00:38:56;21.50;85.90
71672;DHT22;62112;45.638;11.714;2022-11-22T00:41:22;21.50;86.00
71672;DHT22;62112;45.638;11.714;2022-11-22T00:43:48;21.50;86.10
71672;DHT22;62112;45.638;11.714;2022-11-22T00:46:14;21.50;86.00
71672;DHT22;62112;45.638;11.714;2022-11-22T00:48:39;21.40;86.00
71672;DHT22;62112;45.638;11.714;2022-11-22T00:51:05;21.40;86.00
71672;DHT22;62112;45.638;11.714;2022-11-22T00:53:31;21.40;86.00
71672;DHT22;62112;45.638;11.714;2022-11-22T00:55:57;21.40;86.10
71672;DHT22;62112;45.638;11.714;2022-11-22T00:58:23;21.40;86.20
71672;DHT22;62112;45.638;11.714;2022-11-22T01:00:49;21.30;86.20
71672;DHT22;62112;45.638;11.714;2022-11-22T01:03:15;21.30;86.20
71672;DHT22;62112;45.638;11.714;2022-11-22T01:05:41;21.40;86.20
71672;DHT22;62112;45.638;11.714;2022-11-22T01:08:08;21.30;86.20
71672;DHT22;62112;45.638;11.714;2022-11-22T01:10:35;21.30;86.20
71672;DHT22;62112;45.638;11.714;2022-11-22T01:13:01;21.30;86.10
71672;DHT22;62112;45.638;11.714;2022-11-22T01:15:28;21.30;86.20
71672;DHT22;62112;45.638;11.714;2022-11-22T01:17:53;21.30;86.50
71672;DHT22;62112;45.638;11.714;2022-11-22T01:20:19;21.30;86.20
71672;DHT22;62112;45.638;11.714;2022-11-22T01:22:45;21.20;86.30
71672;DHT22;62112;45.638;11.714;2022-11-22T01:25:11;21.20;86.40
71672;DHT22;62112;45.638;11.714;2022-11-22T01:27:37;21.20;86.40
71672;DHT22;62112;45.638;11.714;2022-11-22T01:30:03;21.20;86.50
71672;DHT22;62112;45.638;11.714;2022-11-22T01:32:29;21.20;86.40
71672;DHT22;62112;45.638;11.714;2022-11-22T01:34:55;21.20;86.40
71672;DHT22;62112;45.638;11.714;2022-11-22T01:37:21;21.10;86.50
71672;DHT22;62112;45.638;11.714;2022-11-22T01:39:47;21.10;86.50
71672;DHT22;62112;45.638;11.714;2022-11-22T01:42:13;21.10;86.50
71672;DHT22;62112;45.638;11.714;2022-11-22T01:44:40;21.10;86.50
71672;DHT22;62112;45.638;11.714;2022-11-22T01:47:15;21.00;86.40
71672;DHT22;62112;45.638;11.714;2022-11-22T01:49:56;21.00;86.60
71672;DHT22;62112;45.638;11.714;2022-11-22T01:52:26;21.00;86.60
71672;DHT22;62112;45.638;11.714;2022-11-22T01:55:06;20.90;87.90
71672;DHT22;62112;45.638;11.714;2022-11-22T01:57:35;21.00;86.80
71672;DHT22;62112;45.638;11.714;2022-11-22T02:00:06;21.00;86.50
71672;DHT22;62112;45.638;11.714;2022-11-22T02:02:33;21.00;86.70
71672;DHT22;62112;45.638;11.714;2022-11-22T02:05:04;20.90;86.70
71672;DHT22;62112;45.638;11.714;2022-11-22T02:07:42;20.90;86.70
71672;DHT22;62112;45.638;11.714;2022-11-22T02:10:10;21.00;86.70
71672;DHT22;62112;45.638;11.714;2022-11-22T02:12:36;20.90;87.90
71672;DHT22;62112;45.638;11.714;2022-11-22T02:15:03;20.80;87.90
71672;DHT22;62112;45.638;11.714;2022-11-22T02:17:29;20.80;88.10
71672;DHT22;62112;45.638;11.714;2022-11-22T02:19:55;20.80;87.90
71672;DHT22;62112;45.638;11.714;2022-11-22T02:22:43;20.80;88.00
71672;DHT22;62112;45.638;11.714;2022-11-22T02:25:26;20.90;86.90
71672;DHT22;62112;45.638;11.714;2022-11-22T02:27:54;20.80;88.10
71672;DHT22;62112;45.638;11.714;2022-11-22T02:30:20;20.80;87.90
71672;DHT22;62112;45.638;11.714;2022-11-22T02:32:46;20.80;88.10
71672;DHT22;62112;45.638;11.714;2022-11-22T02:35:24;20.80;88.10
71672;DHT22;62112;45.638;11.714;2022-11-22T02:38:03;20.80;88.10
71672;DHT22;62112;45.638;11.714;2022-11-22T02:40:44;20.80;88.20
71672;DHT22;62112;45.638;11.714;2022-11-22T02:43:16;20.70;88.30
71672;DHT22;62112;45.638;11.714;2022-11-22T02:45:42;20.80;88.10
71672;DHT22;62112;45.638;11.714;2022-11-22T02:48:11;20.80;88.00
71672;DHT22;62112;45.638;11.714;2022-11-22T02:50:37;20.80;88.10
71672;DHT22;62112;45.638;11.714;2022-11-22T02:53:04;20.70;88.20
71672;DHT22;62112;45.638;11.714;2022-11-22T02:55:30;20.70;88.20
71672;DHT22;62112;45.638;11.714;2022-11-22T02:57:56;20.70;88.20
71672;DHT22;62112;45.638;11.714;2022-11-22T03:00:22;20.80;88.30
71672;DHT22;62112;45.638;11.714;2022-11-22T03:02:48;20.70;88.20
71672;DHT22;62112;45.638;11.714;2022-11-22T03:05:14;20.70;88.20
71672;DHT22;62112;45.638;11.714;2022-11-22T03:07:40;20.60;88.10
71672;DHT22;62112;45.638;11.714;2022-11-22T03:10:06;20.70;88.20
71672;DHT22;62112;45.638;11.714;2022-11-22T03:12:32;20.70;88.20
71672;DHT22;62112;45.638;11.714;2022-11-22T03:14:58;20.60;88.30
71672;DHT22;62112;45.638;11.714;2022-11-22T03:17:23;20.60;88.40
71672;DHT22;62112;45.638;11.714;2022-11-22T03:19:49;20.70;88.30
71672;DHT22;62112;45.638;11.714;2022-11-22T03:22:15;20.70;88.30
71672;DHT22;62112;45.638;11.714;2022-11-22T03:24:41;20.60;88.30
71672;DHT22;62112;45.638;11.714;2022-11-22T03:27:07;20.60;88.30
71672;DHT22;62112;45.638;11.714;2022-11-22T03:29:33;20.60;88.30
71672;DHT22;62112;45.638;11.714;2022-11-22T03:31:58;20.60;88.40
71672;DHT22;62112;45.638;11.714;2022-11-22T03:34:24;20.60;88.30
71672;DHT22;62112;45.638;11.714;2022-11-22T03:36:50;20.60;88.40
71672;DHT22;62112;45.638;11.714;2022-11-22T03:39:16;20.60;88.40
71672;DHT22;62112;45.638;11.714;2022-11-22T03:41:42;20.50;88.30
71672;DHT22;62112;45.638;11.714;2022-11-22T03:44:08;20.60;88.40
71672;DHT22;62112;45.638;11.714;2022-11-22T03:46:33;20.60;88.40
71672;DHT22;62112;45.638;11.714;2022-11-22T03:48:59;20.50;88.50
71672;DHT22;62112;45.638;11.714;2022-11-22T03:51:26;20.60;88.40
71672;DHT22;62112;45.638;11.714;2022-11-22T03:53:52;20.50;88.50
71672;DHT22;62112;45.638;11.714;2022-11-22T03:56:18;20.60;88.50
71672;DHT22;62112;45.638;11.714;2022-11-22T03:58:43;20.50;88.40
71672;DHT22;62112;45.638;11.714;2022-11-22T04:01:09;20.50;88.40
71672;DHT22;62112;45.638;11.714;2022-11-22T04:03:35;20.50;88.50
71672;DHT22;62112;45.638;11.714;2022-11-22T04:06:01;20.50;88.40
71672;DHT22;62112;45.638;11.714;2022-11-22T04:08:27;20.50;88.40
71672;DHT22;62112;45.638;11.714;2022-11-22T04:10:52;20.50;88.40
71672;DHT22;62112;45.638;11.714;2022-11-22T04:13:19;20.50;88.50
71672;DHT22;62112;45.638;11.714;2022-11-22T04:15:44;20.40;88.50
71672;DHT22;62112;45.638;11.714;2022-11-22T04:18:11;20.50;88.60
71672;DHT22;62112;45.638;11.714;2022-11-22T04:20:38;20.50;88.50
71672;DHT22;62112;45.638;11.714;2022-11-22T04:23:23;20.50;88.40
71672;DHT22;62112;45.638;11.714;2022-11-22T04:25:51;20.50;88.60
71672;DHT22;62112;45.638;11.714;2022-11-22T04:28:21;20.40;88.60
71672;DHT22;62112;45.638;11.714;2022-11-22T04:30:48;20.40;88.60
71672;DHT22;62112;45.638;11.714;2022-11-22T04:33:33;20.40;88.50
71672;DHT22;62112;45.638;11.714;2022-11-22T04:35:59;20.30;88.50
71672;DHT22;62112;45.638;11.714;2022-11-22T04:38:25;20.40;88.30
71672;DHT22;62112;45.638;11.714;2022-11-22T04:40:51;20.40;88.50
71672;DHT22;62112;45.638;11.714;2022-11-22T04:43:28;20.40;88.60
71672;DHT22;62112;45.638;11.714;2022-11-22T04:46:13;20.40;88.70
71672;DHT22;62112;45.638;11.714;2022-11-22T04:48:39;20.40;88.70
71672;DHT22;62112;45.638;11.714;2022-11-22T04:51:06;20.40;88.60
71672;DHT22;62112;45.638;11.714;2022-11-22T04:53:51;20.40;88.70
71672;DHT22;62112;45.638;11.714;2022-11-22T04:56:17;20.40;88.60
71672;DHT22;62112;45.638;11.714;2022-11-22T04:58:43;20.40;88.70
71672;DHT22;62112;45.638;11.714;2022-11-22T05:01:09;20.40;88.50
71672;DHT22;62112;45.638;11.714;2022-11-22T05:03:35;20.40;88.50
71672;DHT22;62112;45.638;11.714;2022-11-22T05:06:02;20.30;88.70
71672;DHT22;62112;45.638;11.714;2022-11-22T05:08:29;20.30;88.70
71672;DHT22;62112;45.638;11.714;2022-11-22T05:10:55;20.30;88.50
71672;DHT22;62112;45.638;11.714;2022-11-22T05:13:24;20.40;88.60
71672;DHT22;62112;45.638;11.714;2022-11-22T05:15:54;20.30;88.80
71672;DHT22;62112;45.638;11.714;2022-11-22T05:18:21;20.30;88.80
71672;DHT22;62112;45.638;11.714;2022-11-22T05:20:48;20.30;88.60
71672;DHT22;62112;45.638;11.714;2022-11-22T05:23:16;20.40;88.70
71672;DHT22;62112;45.638;11.714;2022-11-22T05:26:00;20.30;88.70
71672;DHT22;62112;45.638;11.714;2022-11-22T05:28:31;20.30;88.60
71672;DHT22;62112;45.638;11.714;2022-11-22T05:30:57;20.30;88.70
71672;DHT22;62112;45.638;11.714;2022-11-22T05:33:23;20.40;88.60
71672;DHT22;62112;45.638;11.714;2022-11-22T05:35:49;20.30;88.70
71672;DHT22;62112;45.638;11.714;2022-11-22T05:38:16;20.30;88.70
71672;DHT22;62112;45.638;11.714;2022-11-22T05:40:42;20.30;88.60
71672;DHT22;62112;45.638;11.714;2022-11-22T05:43:08;20.40;88.60
71672;DHT22;62112;45.638;11.714;2022-11-22T05:45:35;20.30;88.80
71672;DHT22;62112;45.638;11.714;2022-11-22T05:48:02;20.30;88.60
71672;DHT22;62112;45.638;11.714;2022-11-22T05:50:27;20.40;88.50
71672;DHT22;62112;45.638;11.714;2022-11-22T05:52:54;20.30;88.60
71672;DHT22;62112;45.638;11.714;2022-11-22T05:55:19;20.30;88.50
71672;DHT22;62112;45.638;11.714;2022-11-22T05:57:45;20.30;88.60
71672;DHT22;62112;45.638;11.714;2022-11-22T06:00:11;20.20;88.70
71672;DHT22;62112;45.638;11.714;2022-11-22T06:02:37;20.30;88.60
71672;DHT22;62112;45.638;11.714;2022-11-22T06:05:03;20.20;88.70
71672;DHT22;62112;45.638;11.714;2022-11-22T06:07:29;20.20;88.80
71672;DHT22;62112;45.638;11.714;2022-11-22T06:09:55;20.30;88.60
71672;DHT22;62112;45.638;11.714;2022-11-22T06:12:21;20.20;88.60
71672;DHT22;62112;45.638;11.714;2022-11-22T06:14:47;20.20;88.70
71672;DHT22;62112;45.638;11.714;2022-11-22T06:17:13;20.20;88.60
71672;DHT22;62112;45.638;11.714;2022-11-22T06:19:38;20.30;88.70
71672;DHT22;62112;45.638;11.714;2022-11-22T06:22:04;20.30;88.70
71672;DHT22;62112;45.638;11.714;2022-11-22T06:24:30;20.20;88.50
71672;DHT22;62112;45.638;11.714;2022-11-22T06:26:56;20.20;88.80
71672;DHT22;62112;45.638;11.714;2022-11-22T06:29:22;20.20;88.70
71672;DHT22;62112;45.638;11.714;2022-11-22T06:31:47;20.20;88.70
71672;DHT22;62112;45.638;11.714;2022-11-22T06:34:13;20.20;88.60
71672;DHT22;62112;45.638;11.714;2022-11-22T06:36:39;20.20;88.60
71672;DHT22;62112;45.638;11.714;2022-11-22T06:39:05;20.20;88.70
71672;DHT22;62112;45.638;11.714;2022-11-22T06:41:33;20.20;88.70
71672;DHT22;62112;45.638;11.714;2022-11-22T06:44:04;20.20;88.80
71672;DHT22;62112;45.638;11.714;2022-11-22T06:46:30;20.20;88.70
71672;DHT22;62112;45.638;11.714;2022-11-22T06:48:56;20.10;88.60
71672;DHT22;62112;45.638;11.714;2022-11-22T06:51:28;20.10;88.80
71672;DHT22;62112;45.638;11.714;2022-11-22T06:53:57;20.10;88.80
71672;DHT22;62112;45.638;11.714;2022-11-22T06:56:34;20.20;88.60
71672;DHT22;62112;45.638;11.714;2022-11-22T06:59:02;20.20;88.80
71672;DHT22;62112;45.638;11.714;2022-11-22T07:01:29;20.30;88.80
71672;DHT22;62112;45.638;11.714;2022-11-22T07:03:57;20.20;88.70
71672;DHT22;62112;45.638;11.714;2022-11-22T07:06:28;20.20;88.80
71672;DHT22;62112;45.638;11.714;2022-11-22T07:08:54;20.20;89.00
71672;DHT22;62112;45.638;11.714;2022-11-22T07:11:23;20.10;89.00
71672;DHT22;62112;45.638;11.714;2022-11-22T07:13:49;20.20;89.20
71672;DHT22;62112;45.638;11.714;2022-11-22T07:16:18;20.20;89.30
71672;DHT22;62112;45.638;11.714;2022-11-22T07:18:48;20.20;89.50
71672;DHT22;62112;45.638;11.714;2022-11-22T07:21:19;20.20;89.60
71672;DHT22;62112;45.638;11.714;2022-11-22T07:23:46;20.20;89.60
71672;DHT22;62112;45.638;11.714;2022-11-22T07:26:14;20.20;89.70
71672;DHT22;62112;45.638;11.714;2022-11-22T07:28:41;20.20;89.70
71672;DHT22;62112;45.638;11.714;2022-11-22T07:31:09;20.20;89.50
71672;DHT22;62112;45.638;11.714;2022-11-22T07:33:39;20.10;89.60
71672;DHT22;62112;45.638;11.714;2022-11-22T07:36:10;20.10;89.70
71672;DHT22;62112;45.638;11.714;2022-11-22T07:38:38;20.20;89.70
71672;DHT22;62112;45.638;11.714;2022-11-22T07:41:10;20.10;89.60
71672;DHT22;62112;45.638;11.714;2022-11-22T07:43:39;20.30;89.60
71672;DHT22;62112;45.638;11.714;2022-11-22T07:46:15;20.20;89.70
71672;DHT22;62112;45.638;11.714;2022-11-22T07:48:47;20.20;89.70
71672;DHT22;62112;45.638;11.714;2022-11-22T07:51:14;20.30;89.70
71672;DHT22;62112;45.638;11.714;2022-11-22T07:53:41;20.30;89.60
71672;DHT22;62112;45.638;11.714;2022-11-22T07:56:07;20.20;89.60
71672;DHT22;62112;45.638;11.714;2022-11-22T07:58:33;20.30;89.60
71672;DHT22;62112;45.638;11.714;2022-11-22T08:01:13;20.20;89.50
71672;DHT22;62112;45.638;11.714;2022-11-22T08:03:39;20.30;89.70
71672;DHT22;62112;45.638;11.714;2022-11-22T08:06:07;20.30;89.70
71672;DHT22;62112;45.638;11.714;2022-11-22T08:08:34;20.20;89.50
71672;DHT22;62112;45.638;11.714;2022-11-22T08:11:00;20.30;89.70
71672;DHT22;62112;45.638;11.714;2022-11-22T08:13:26;20.30;89.50
71672;DHT22;62112;45.638;11.714;2022-11-22T08:15:53;20.30;89.50
71672;DHT22;62112;45.638;11.714;2022-11-22T08:18:19;20.30;89.60
71672;DHT22;62112;45.638;11.714;2022-11-22T08:20:45;20.30;89.60
71672;DHT22;62112;45.638;11.714;2022-11-22T08:23:12;20.30;89.50
71672;DHT22;62112;45.638;11.714;2022-11-22T08:25:40;20.30;89.80
71672;DHT22;62112;45.638;11.714;2022-11-22T08:28:05;20.30;89.70
71672;DHT22;62112;45.638;11.714;2022-11-22T08:30:31;20.30;89.60
71672;DHT22;62112;45.638;11.714;2022-11-22T08:32:57;20.30;89.70
71672;DHT22;62112;45.638;11.714;2022-11-22T08:35:23;20.30;89.70
71672;DHT22;62112;45.638;11.714;2022-11-22T08:37:49;20.30;89.70
71672;DHT22;62112;45.638;11.714;2022-11-22T08:40:16;20.30;89.80
71672;DHT22;62112;45.638;11.714;2022-11-22T08:42:42;20.30;89.80
71672;DHT22;62112;45.638;11.714;2022-11-22T08:45:09;20.30;89.80
71672;DHT22;62112;45.638;11.714;2022-11-22T08:47:34;20.30;89.80
71672;DHT22;62112;45.638;11.714;2022-11-22T08:50:00;20.30;90.00
71672;DHT22;62112;45.638;11.714;2022-11-22T08:52:26;20.40;90.00
71672;DHT22;62112;45.638;11.714;2022-11-22T08:54:52;20.40;89.80
71672;DHT22;62112;45.638;11.714;2022-11-22T08:57:18;20.30;90.00
71672;DHT22;62112;45.638;11.714;2022-11-22T08:59:44;20.30;89.80
71672;DHT22;62112;45.638;11.714;2022-11-22T09:02:10;20.30;89.90
71672;DHT22;62112;45.638;11.714;2022-11-22T09:04:36;20.40;89.80
71672;DHT22;62112;45.638;11.714;2022-11-22T09:07:01;20.40;89.80
71672;DHT22;62112;45.638;11.714;2022-11-22T09:09:27;20.30;89.90
71672;DHT22;62112;45.638;11.714;2022-11-22T09:11:53;20.30;89.90
71672;DHT22;62112;45.638;11.714;2022-11-22T09:14:20;20.40;89.70
71672;DHT22;62112;45.638;11.714;2022-11-22T09:16:46;20.30;89.80
71672;DHT22;62112;45.638;11.714;2022-11-22T09:19:12;20.30;89.80
71672;DHT22;62112;45.638;11.714;2022-11-22T09:21:38;20.30;89.90
71672;DHT22;62112;45.638;11.714;2022-11-22T09:24:04;20.40;89.80
71672;DHT22;62112;45.638;11.714;2022-11-22T09:26:30;20.30;89.70
71672;DHT22;62112;45.638;11.714;2022-11-22T09:28:56;20.40;89.80
71672;DHT22;62112;45.638;11.714;2022-11-22T09:31:22;20.30;89.60
71672;DHT22;62112;45.638;11.714;2022-11-22T09:33:49;20.30;89.60
71672;DHT22;62112;45.638;11.714;2022-11-22T09:36:19;20.30;89.70
71672;DHT22;62112;45.638;11.714;2022-11-22T09:38:46;20.30;89.60
71672;DHT22;62112;45.638;11.714;2022-11-22T09:41:17;20.30;89.60
71672;DHT22;62112;45.638;11.714;2022-11-22T10:09:35;20.20;89.60
71672;DHT22;62112;45.638;11.714;2022-11-22T10:12:26;20.30;89.70
71672;DHT22;62112;45.638;11.714;2022-11-22T10:20:45;20.20;89.80
71672;DHT22;62112;45.638;11.714;2022-11-22T10:23:18;20.30;89.90
71672;DHT22;62112;45.638;11.714;2022-11-22T10:25:57;20.20;89.80
71672;DHT22;62112;45.638;11.714;2022-11-22T10:36:28;20.20;89.90
71672;DHT22;62112;45.638;11.714;2022-11-22T10:39:22;20.10;90.00
71672;DHT22;62112;45.638;11.714;2022-11-22T10:44:40;20.20;90.10
71672;DHT22;62112;45.638;11.714;2022-11-22T10:47:13;20.10;90.30
71672;DHT22;62112;45.638;11.714;2022-11-22T10:49:59;20.20;90.10
71672;DHT22;62112;45.638;11.714;2022-11-22T11:00:25;20.10;90.40
71672;DHT22;62112;45.638;11.714;2022-11-22T11:03:19;20.10;90.40
71672;DHT22;62112;45.638;11.714;2022-11-22T11:05:59;20.20;90.50
71672;DHT22;62112;45.638;11.714;2022-11-22T11:09:31;20.10;90.40
71672;DHT22;62112;45.638;11.714;2022-11-22T11:11:26;20.10;90.40
71672;DHT22;62112;45.638;11.714;2022-11-22T11:14:05;20.10;90.50
71672;DHT22;62112;45.638;11.714;2022-11-22T11:16:34;20.20;90.50
71672;DHT22;62112;45.638;11.714;2022-11-22T11:21:36;20.10;90.60
71672;DHT22;62112;45.638;11.714;2022-11-22T11:24:02;20.10;90.80
71672;DHT22;62112;45.638;11.714;2022-11-22T11:26:30;20.00;90.60
71672;DHT22;62112;45.638;11.714;2022-11-22T11:34:20;20.10;90.80
71672;DHT22;62112;45.638;11.714;2022-11-22T11:36:46;20.00;91.00
71672;DHT22;62112;45.638;11.714;2022-11-22T11:39:23;20.20;90.90
71672;DHT22;62112;45.638;11.714;2022-11-22T11:41:52;20.00;91.00
71672;DHT22;62112;45.638;11.714;2022-11-22T11:44:34;20.10;90.80
71672;DHT22;62112;45.638;11.714;2022-11-22T11:47:04;20.10;91.00
71672;DHT22;62112;45.638;11.714;2022-11-22T11:49:31;20.00;90.90
71672;DHT22;62112;45.638;11.714;2022-11-22T11:52:04;20.10;90.80
71672;DHT22;62112;45.638;11.714;2022-11-22T11:54:40;20.10;91.10
71672;DHT22;62112;45.638;11.714;2022-11-22T11:57:20;20.00;91.00
71672;DHT22;62112;45.638;11.714;2022-11-22T11:59:51;20.10;91.00
71672;DHT22;62112;45.638;11.714;2022-11-22T12:04:59;20.10;90.90
71672;DHT22;62112;45.638;11.714;2022-11-22T12:07:37;20.00;90.90
71672;DHT22;62112;45.638;11.714;2022-11-22T12:13:41;20.10;91.00
71672;DHT22;62112;45.638;11.714;2022-11-22T12:16:28;20.10;90.80
71672;DHT22;62112;45.638;11.714;2022-11-22T12:25:00;20.00;90.80
71672;DHT22;62112;45.638;11.714;2022-11-22T12:27:29;20.00;90.80
71672;DHT22;62112;45.638;11.714;2022-11-22T12:29:57;20.00;90.80
71672;DHT22;62112;45.638;11.714;2022-11-22T12:32:35;20.00;90.80
71672;DHT22;62112;45.638;11.714;2022-11-22T12:35:10;20.10;90.70
71672;DHT22;62112;45.638;11.714;2022-11-22T12:37:52;20.00;90.70
71672;DHT22;62112;45.638;11.714;2022-11-22T12:40:36;20.00;90.70
71672;DHT22;62112;45.638;11.714;2022-11-22T12:43:22;20.00;90.70
71672;DHT22;62112;45.638;11.714;2022-11-22T12:46:00;20.00;90.60
71672;DHT22;62112;45.638;11.714;2022-11-22T12:48:45;20.10;90.70
71672;DHT22;62112;45.638;11.714;2022-11-22T12:53:59;20.00;90.80
71672;DHT22;62112;45.638;11.714;2022-11-22T12:56:52;20.10;90.60
71672;DHT22;62112;45.638;11.714;2022-11-22T12:59:46;20.00;90.70
71672;DHT22;62112;45.638;11.714;2022-11-22T13:02:39;20.00;90.80
71672;DHT22;62112;45.638;11.714;2022-11-22T13:05:21;20.10;90.70
71672;DHT22;62112;45.638;11.714;2022-11-22T13:08:13;20.10;90.80
71672;DHT22;62112;45.638;11.714;2022-11-22T13:13:45;20.00;90.70
71672;DHT22;62112;45.638;11.714;2022-11-22T13:16:13;20.10;90.70
71672;DHT22;62112;45.638;11.714;2022-11-22T13:19:04;20.10;90.50
71672;DHT22;62112;45.638;11.714;2022-11-22T13:29:21;20.10;90.50
71672;DHT22;62112;45.638;11.714;2022-11-22T13:37:45;20.10;90.60
71672;DHT22;62112;45.638;11.714;2022-11-22T13:42:42;20.10;90.50
71672;DHT22;62112;45.638;11.714;2022-11-22T13:45:22;20.10;90.40
71672;DHT22;62112;45.638;11.714;2022-11-22T13:47:49;20.00;90.60
71672;DHT22;62112;45.638;11.714;2022-11-22T13:55:44;20.20;90.60
71672;DHT22;62112;45.638;11.714;2022-11-22T14:03:26;20.20;90.50
71672;DHT22;62112;45.638;11.714;2022-11-22T14:05:56;20.10;90.50
71672;DHT22;62112;45.638;11.714;2022-11-22T14:08:34;20.20;90.50
71672;DHT22;62112;45.638;11.714;2022-11-22T14:11:07;20.20;90.50
71672;DHT22;62112;45.638;11.714;2022-11-22T14:30:07;20.10;90.60
71672;DHT22;62112;45.638;11.714;2022-11-22T14:32:57;20.10;90.60
71672;DHT22;62112;45.638;11.714;2022-11-22T14:35:36;20.20;90.50
71672;DHT22;62112;45.638;11.714;2022-11-22T14:40:38;20.20;90.40
71672;DHT22;62112;45.638;11.714;2022-11-22T14:43:25;20.20;90.50
71672;DHT22;62112;45.638;11.714;2022-11-22T14:46:11;20.20;90.60
71672;DHT22;62112;45.638;11.714;2022-11-22T14:49:08;20.20;90.50
71672;DHT22;62112;45.638;11.714;2022-11-22T14:51:35;20.20;90.60
71672;DHT22;62112;45.638;11.714;2022-11-22T14:54:14;20.10;90.50
71672;DHT22;62112;45.638;11.714;2022-11-22T14:56:44;20.20;90.70
71672;DHT22;62112;45.638;11.714;2022-11-22T15:04:45;20.10;90.40
71672;DHT22;62112;45.638;11.714;2022-11-22T15:10:36;20.10;90.70
71672;DHT22;62112;45.638;11.714;2022-11-22T15:15:54;20.10;90.60
71672;DHT22;62112;45.638;11.714;2022-11-22T15:18:33;20.20;90.50
71672;DHT22;62112;45.638;11.714;2022-11-22T15:21:33;20.20;90.70
71672;DHT22;62112;45.638;11.714;2022-11-22T15:23:59;20.10;90.60
71672;DHT22;62112;45.638;11.714;2022-11-22T15:26:29;20.10;90.50
71672;DHT22;62112;45.638;11.714;2022-11-22T15:28:57;20.10;90.80
71672;DHT22;62112;45.638;11.714;2022-11-22T15:31:34;20.20;90.70
71672;DHT22;62112;45.638;11.714;2022-11-22T15:34:00;20.10;90.90
71672;DHT22;62112;45.638;11.714;2022-11-22T15:39:11;20.20;90.80
71672;DHT22;62112;45.638;11.714;2022-11-22T15:41:38;20.20;90.80
71672;DHT22;62112;45.638;11.714;2022-11-22T15:44:06;20.20;90.80
71672;DHT22;62112;45.638;11.714;2022-11-22T15:46:37;20.20;90.80
71672;DHT22;62112;45.638;11.714;2022-11-22T15:49:04;20.10;90.70
71672;DHT22;62112;45.638;11.714;2022-11-22T15:51:35;20.10;90.70
71672;DHT22;62112;45.638;11.714;2022-11-22T15:54:15;20.20;90.70
71672;DHT22;62112;45.638;11.714;2022-11-22T15:56:59;20.20;91.00
71672;DHT22;62112;45.638;11.714;2022-11-22T15:59:29;20.20;91.10
71672;DHT22;62112;45.638;11.714;2022-11-22T16:01:59;20.10;91.10
71672;DHT22;62112;45.638;11.714;2022-11-22T16:06:57;20.20;91.30
71672;DHT22;62112;45.638;11.714;2022-11-22T16:09:27;20.20;91.20
71672;DHT22;62112;45.638;11.714;2022-11-22T16:11:55;20.10;91.40
71672;DHT22;62112;45.638;11.714;2022-11-22T16:17:22;20.20;91.30
71672;DHT22;62112;45.638;11.714;2022-11-22T16:19:48;20.10;91.20
71672;DHT22;62112;45.638;11.714;2022-11-22T16:22:32;20.10;91.20
71672;DHT22;62112;45.638;11.714;2022-11-22T16:25:35;20.10;91.60
71672;DHT22;62112;45.638;11.714;2022-11-22T16:28:25;20.10;91.40
71672;DHT22;62112;45.638;11.714;2022-11-22T16:30:57;20.10;91.40
71672;DHT22;62112;45.638;11.714;2022-11-22T16:33:23;20.10;91.20
71672;DHT22;62112;45.638;11.714;2022-11-22T16:35:54;20.10;91.10
71672;DHT22;62112;45.638;11.714;2022-11-22T16:38:20;20.10;91.20
71672;DHT22;62112;45.638;11.714;2022-11-22T16:40:46;20.10;91.10
71672;DHT22;62112;45.638;11.714;2022-11-22T16:43:18;20.20;91.10
71672;DHT22;62112;45.638;11.714;2022-11-22T16:45:44;20.10;91.00
71672;DHT22;62112;45.638;11.714;2022-11-22T16:48:18;20.10;91.00
71672;DHT22;62112;45.638;11.714;2022-11-22T16:50:44;20.20;91.20
71672;DHT22;62112;45.638;11.714;2022-11-22T16:53:15;20.10;91.00
71672;DHT22;62112;45.638;11.714;2022-11-22T16:55:41;20.00;91.00
71672;DHT22;62112;45.638;11.714;2022-11-22T16:58:22;20.20;91.10
71672;DHT22;62112;45.638;11.714;2022-11-22T17:00:48;20.10;91.10
71672;DHT22;62112;45.638;11.714;2022-11-22T17:03:18;20.00;90.90
71672;DHT22;62112;45.638;11.714;2022-11-22T17:05:44;20.10;91.00
71672;DHT22;62112;45.638;11.714;2022-11-22T17:08:13;20.10;90.80
71672;DHT22;62112;45.638;11.714;2022-11-22T17:10:43;20.20;90.90
71672;DHT22;62112;45.638;11.714;2022-11-22T17:13:17;20.10;91.00
71672;DHT22;62112;45.638;11.714;2022-11-22T17:15:44;20.10;91.10
71672;DHT22;62112;45.638;11.714;2022-11-22T17:18:10;20.10;90.90
71672;DHT22;62112;45.638;11.714;2022-11-22T17:20:36;20.00;90.90
71672;DHT22;62112;45.638;11.714;2022-11-22T17:23:08;20.10;91.00
71672;DHT22;62112;45.638;11.714;2022-11-22T17:25:36;20.10;90.80
71672;DHT22;62112;45.638;11.714;2022-11-22T17:28:02;20.00;90.90
71672;DHT22;62112;45.638;11.714;2022-11-22T17:30:27;20.10;90.80
71672;DHT22;62112;45.638;11.714;2022-11-22T17:32:53;20.10;90.70
71672;DHT22;62112;45.638;11.714;2022-11-22T17:35:19;20.00;90.80
71672;DHT22;62112;45.638;11.714;2022-11-22T17:37:45;20.10;90.60
71672;DHT22;62112;45.638;11.714;2022-11-22T17:40:11;20.00;90.70
71672;DHT22;62112;45.638;11.714;2022-11-22T17:42:37;20.10;90.70
71672;DHT22;62112;45.638;11.714;2022-11-22T17:45:03;20.00;90.60
71672;DHT22;62112;45.638;11.714;2022-11-22T17:47:29;20.00;90.70
71672;DHT22;62112;45.638;11.714;2022-11-22T17:49:56;20.00;90.70
71672;DHT22;62112;45.638;11.714;2022-11-22T17:52:22;20.00;90.60